sensor_id;sensor_type;location;lat;lon;timestamp;P1;durP1;ratioP1;P2;durP2;ratioP2
30307;SDS011;17114;52.314;8.910;2022-12-18T00:01:22;34.67;;;14.50;;
30307;SDS011;17114;52.314;8.910;2022-12-18T00:03:54;32.70;;;14.48;;
30307;SDS011;17114;52.314;8.910;2022-12-18T00:06:23;35.38;;;14.40;;
30307;SDS011;17114;52.314;8.910;2022-12-18T00:08:51;35.60;;;14.45;;
30307;SDS011;17114;52.314;8.910;2022-12-18T00:11:23;32.10;;;13.95;;
30307;SDS011;17114;52.314;8.910;2022-12-18T00:13:52;34.30;;;13.95;;
30307;SDS011;17114;52.314;8.910;2022-12-18T00:16:22;39.35;;;14.55;;
30307;SDS011;17114;52.314;8.910;2022-12-18T00:18:51;32.97;;;14.18;;
30307;SDS011;17114;52.314;8.910;2022-12-18T00:21:20;34.35;;;13.68;;
30307;SDS011;17114;52.314;8.910;2022-12-18T00:23:47;29.73;;;13.25;;
30307;SDS011;17114;52.314;8.910;2022-12-18T00:26:16;34.00;;;14.35;;
30307;SDS011;17114;52.314;8.910;2022-12-18T00:28:46;32.47;;;14.25;;
30307;SDS011;17114;52.314;8.910;2022-12-18T00:31:17;35.42;;;14.90;;
30307;SDS011;17114;52.314;8.910;2022-12-18T00:33:48;33.78;;;15.30;;
30307;SDS011;17114;52.314;8.910;2022-12-18T00:36:21;33.90;;;15.25;;
30307;SDS011;17114;52.314;8.910;2022-12-18T00:38:50;34.50;;;14.32;;
30307;SDS011;17114;52.314;8.910;2022-12-18T00:41:18;33.65;;;14.60;;
30307;SDS011;17114;52.314;8.910;2022-12-18T00:44:05;33.28;;;13.05;;
30307;SDS011;17114;52.314;8.910;2022-12-18T00:46:33;29.38;;;13.43;;
30307;SDS011;17114;52.314;8.910;2022-12-18T00:49:00;28.60;;;13.50;;
30307;SDS011;17114;52.314;8.910;2022-12-18T00:51:28;33.15;;;13.80;;
30307;SDS011;17114;52.314;8.910;2022-12-18T00:53:55;28.90;;;13.35;;
30307;SDS011;17114;52.314;8.910;2022-12-18T00:56:22;25.55;;;12.05;;
30307;SDS011;17114;52.314;8.910;2022-12-18T00:58:49;28.25;;;13.07;;
30307;SDS011;17114;52.314;8.910;2022-12-18T01:01:16;27.23;;;12.63;;
30307;SDS011;17114;52.314;8.910;2022-12-18T01:03:43;31.20;;;13.82;;
30307;SDS011;17114;52.314;8.910;2022-12-18T01:06:11;31.35;;;12.50;;
30307;SDS011;17114;52.314;8.910;2022-12-18T01:08:57;31.25;;;13.02;;
30307;SDS011;17114;52.314;8.910;2022-12-18T01:11:24;29.17;;;13.15;;
30307;SDS011;17114;52.314;8.910;2022-12-18T01:13:54;30.73;;;12.82;;
30307;SDS011;17114;52.314;8.910;2022-12-18T01:16:21;26.20;;;11.95;;
30307;SDS011;17114;52.314;8.910;2022-12-18T01:18:51;28.02;;;12.07;;
30307;SDS011;17114;52.314;8.910;2022-12-18T01:21:19;29.48;;;13.13;;
30307;SDS011;17114;52.314;8.910;2022-12-18T01:23:46;25.67;;;12.15;;
30307;SDS011;17114;52.314;8.910;2022-12-18T01:26:18;25.67;;;11.80;;
30307;SDS011;17114;52.314;8.910;2022-12-18T01:28:45;30.70;;;12.70;;
30307;SDS011;17114;52.314;8.910;2022-12-18T01:31:36;24.25;;;11.38;;
30307;SDS011;17114;52.314;8.910;2022-12-18T01:34:00;27.38;;;12.27;;
30307;SDS011;17114;52.314;8.910;2022-12-18T01:36:28;26.85;;;11.60;;
30307;SDS011;17114;52.314;8.910;2022-12-18T01:39:02;29.17;;;12.60;;
30307;SDS011;17114;52.314;8.910;2022-12-18T01:41:31;27.48;;;11.27;;
30307;SDS011;17114;52.314;8.910;2022-12-18T01:47:14;25.80;;;11.38;;
30307;SDS011;17114;52.314;8.910;2022-12-18T01:49:53;27.17;;;12.40;;
30307;SDS011;17114;52.314;8.910;2022-12-18T01:52:22;29.02;;;12.80;;
30307;SDS011;17114;52.314;8.910;2022-12-18T01:54:52;26.33;;;11.52;;
30307;SDS011;17114;52.314;8.910;2022-12-18T01:57:20;27.50;;;12.63;;
30307;SDS011;17114;52.314;8.910;2022-12-18T01:59:49;28.50;;;12.40;;
30307;SDS011;17114;52.314;8.910;2022-12-18T02:02:19;26.15;;;12.57;;
30307;SDS011;17114;52.314;8.910;2022-12-18T02:04:47;26.65;;;12.20;;
30307;SDS011;17114;52.314;8.910;2022-12-18T02:07:30;30.23;;;12.70;;
30307;SDS011;17114;52.314;8.910;2022-12-18T02:10:16;28.00;;;11.60;;
30307;SDS011;17114;52.314;8.910;2022-12-18T02:12:53;24.60;;;11.45;;
30307;SDS011;17114;52.314;8.910;2022-12-18T02:18:32;27.80;;;11.75;;
30307;SDS011;17114;52.314;8.910;2022-12-18T02:21:08;26.73;;;11.65;;
30307;SDS011;17114;52.314;8.910;2022-12-18T02:26:31;29.90;;;11.30;;
30307;SDS011;17114;52.314;8.910;2022-12-18T02:29:12;27.33;;;11.25;;
30307;SDS011;17114;52.314;8.910;2022-12-18T02:31:53;27.38;;;11.55;;
30307;SDS011;17114;52.314;8.910;2022-12-18T02:34:26;25.67;;;11.25;;
30307;SDS011;17114;52.314;8.910;2022-12-18T02:36:57;22.60;;;10.95;;
30307;SDS011;17114;52.314;8.910;2022-12-18T02:39:26;35.33;;;12.30;;
30307;SDS011;17114;52.314;8.910;2022-12-18T02:41:55;31.33;;;12.73;;
30307;SDS011;17114;52.314;8.910;2022-12-18T02:44:23;21.48;;;10.65;;
30307;SDS011;17114;52.314;8.910;2022-12-18T02:46:51;29.77;;;11.82;;
30307;SDS011;17114;52.314;8.910;2022-12-18T02:52:24;27.75;;;12.05;;
30307;SDS011;17114;52.314;8.910;2022-12-18T02:57:33;25.80;;;11.57;;
30307;SDS011;17114;52.314;8.910;2022-12-18T03:00:08;26.27;;;12.18;;
30307;SDS011;17114;52.314;8.910;2022-12-18T03:02:44;28.58;;;11.32;;
30307;SDS011;17114;52.314;8.910;2022-12-18T03:05:17;20.83;;;10.52;;
30307;SDS011;17114;52.314;8.910;2022-12-18T03:07:50;25.88;;;11.95;;
30307;SDS011;17114;52.314;8.910;2022-12-18T03:10:46;26.23;;;11.80;;
30307;SDS011;17114;52.314;8.910;2022-12-18T03:13:46;26.17;;;12.43;;
30307;SDS011;17114;52.314;8.910;2022-12-18T03:16:22;25.40;;;11.38;;
30307;SDS011;17114;52.314;8.910;2022-12-18T03:18:55;26.52;;;11.15;;
30307;SDS011;17114;52.314;8.910;2022-12-18T03:21:44;26.15;;;12.32;;
30307;SDS011;17114;52.314;8.910;2022-12-18T03:24:13;24.75;;;11.02;;
30307;SDS011;17114;52.314;8.910;2022-12-18T03:26:43;25.23;;;11.45;;
30307;SDS011;17114;52.314;8.910;2022-12-18T03:29:16;24.65;;;11.18;;
30307;SDS011;17114;52.314;8.910;2022-12-18T03:32:00;27.73;;;11.80;;
30307;SDS011;17114;52.314;8.910;2022-12-18T03:34:35;27.30;;;12.15;;
30307;SDS011;17114;52.314;8.910;2022-12-18T03:37:05;25.15;;;10.90;;
30307;SDS011;17114;52.314;8.910;2022-12-18T03:39:33;24.17;;;10.93;;
30307;SDS011;17114;52.314;8.910;2022-12-18T03:56:25;26.17;;;11.73;;
30307;SDS011;17114;52.314;8.910;2022-12-18T03:58:56;26.23;;;11.95;;
30307;SDS011;17114;52.314;8.910;2022-12-18T04:01:31;27.20;;;12.57;;
30307;SDS011;17114;52.314;8.910;2022-12-18T04:04:05;26.27;;;12.27;;
30307;SDS011;17114;52.314;8.910;2022-12-18T04:06:34;31.48;;;12.77;;
30307;SDS011;17114;52.314;8.910;2022-12-18T04:09:02;29.73;;;12.23;;
30307;SDS011;17114;52.314;8.910;2022-12-18T04:11:30;29.30;;;12.40;;
30307;SDS011;17114;52.314;8.910;2022-12-18T04:13:57;26.65;;;11.40;;
30307;SDS011;17114;52.314;8.910;2022-12-18T04:16:25;27.65;;;12.05;;
30307;SDS011;17114;52.314;8.910;2022-12-18T04:18:53;27.98;;;12.35;;
30307;SDS011;17114;52.314;8.910;2022-12-18T04:21:20;26.30;;;11.88;;
30307;SDS011;17114;52.314;8.910;2022-12-18T04:23:47;24.25;;;11.45;;
30307;SDS011;17114;52.314;8.910;2022-12-18T04:26:13;28.63;;;11.65;;
30307;SDS011;17114;52.314;8.910;2022-12-18T04:28:40;23.90;;;11.18;;
30307;SDS011;17114;52.314;8.910;2022-12-18T04:31:07;27.45;;;10.90;;
30307;SDS011;17114;52.314;8.910;2022-12-18T04:33:34;24.92;;;11.82;;
30307;SDS011;17114;52.314;8.910;2022-12-18T04:36:01;26.55;;;12.02;;
30307;SDS011;17114;52.314;8.910;2022-12-18T04:38:28;29.10;;;12.35;;
30307;SDS011;17114;52.314;8.910;2022-12-18T04:40:54;29.65;;;12.30;;
30307;SDS011;17114;52.314;8.910;2022-12-18T04:43:21;23.60;;;10.98;;
30307;SDS011;17114;52.314;8.910;2022-12-18T04:45:48;33.05;;;12.77;;
30307;SDS011;17114;52.314;8.910;2022-12-18T04:48:15;28.30;;;12.35;;
30307;SDS011;17114;52.314;8.910;2022-12-18T04:50:42;25.70;;;11.82;;
30307;SDS011;17114;52.314;8.910;2022-12-18T04:53:09;27.25;;;12.05;;
30307;SDS011;17114;52.314;8.910;2022-12-18T04:55:35;23.13;;;11.15;;
30307;SDS011;17114;52.314;8.910;2022-12-18T04:58:02;29.52;;;12.52;;
30307;SDS011;17114;52.314;8.910;2022-12-18T05:00:29;30.42;;;12.02;;
30307;SDS011;17114;52.314;8.910;2022-12-18T05:02:56;26.98;;;11.55;;
30307;SDS011;17114;52.314;8.910;2022-12-18T05:05:23;25.45;;;11.63;;
30307;SDS011;17114;52.314;8.910;2022-12-18T05:07:50;26.23;;;11.55;;
30307;SDS011;17114;52.314;8.910;2022-12-18T05:10:16;23.83;;;11.27;;
30307;SDS011;17114;52.314;8.910;2022-12-18T05:12:44;24.65;;;11.38;;
30307;SDS011;17114;52.314;8.910;2022-12-18T05:15:27;29.67;;;11.32;;
30307;SDS011;17114;52.314;8.910;2022-12-18T05:17:55;25.40;;;11.55;;
30307;SDS011;17114;52.314;8.910;2022-12-18T05:20:23;31.55;;;13.00;;
30307;SDS011;17114;52.314;8.910;2022-12-18T05:22:51;25.17;;;11.43;;
30307;SDS011;17114;52.314;8.910;2022-12-18T05:25:18;29.23;;;11.40;;
30307;SDS011;17114;52.314;8.910;2022-12-18T05:27:46;25.58;;;11.13;;
30307;SDS011;17114;52.314;8.910;2022-12-18T05:30:13;25.77;;;11.05;;
30307;SDS011;17114;52.314;8.910;2022-12-18T05:32:40;26.60;;;11.93;;
30307;SDS011;17114;52.314;8.910;2022-12-18T05:35:08;28.90;;;12.07;;
30307;SDS011;17114;52.314;8.910;2022-12-18T05:37:35;27.50;;;11.32;;
30307;SDS011;17114;52.314;8.910;2022-12-18T05:40:08;26.60;;;11.02;;
30307;SDS011;17114;52.314;8.910;2022-12-18T05:42:35;27.27;;;11.57;;
30307;SDS011;17114;52.314;8.910;2022-12-18T05:45:03;20.30;;;10.55;;
30307;SDS011;17114;52.314;8.910;2022-12-18T05:47:30;29.00;;;11.65;;
30307;SDS011;17114;52.314;8.910;2022-12-18T05:49:57;27.73;;;11.50;;
30307;SDS011;17114;52.314;8.910;2022-12-18T05:52:24;25.48;;;11.70;;
30307;SDS011;17114;52.314;8.910;2022-12-18T05:54:51;27.83;;;12.50;;
30307;SDS011;17114;52.314;8.910;2022-12-18T05:57:17;31.40;;;12.77;;
30307;SDS011;17114;52.314;8.910;2022-12-18T05:59:44;29.67;;;12.52;;
30307;SDS011;17114;52.314;8.910;2022-12-18T06:02:11;26.17;;;13.05;;
30307;SDS011;17114;52.314;8.910;2022-12-18T06:04:38;27.65;;;13.43;;
30307;SDS011;17114;52.314;8.910;2022-12-18T06:07:05;26.58;;;12.23;;
30307;SDS011;17114;52.314;8.910;2022-12-18T06:09:32;25.65;;;11.32;;
30307;SDS011;17114;52.314;8.910;2022-12-18T06:11:58;28.70;;;13.43;;
30307;SDS011;17114;52.314;8.910;2022-12-18T06:14:25;29.75;;;11.75;;
30307;SDS011;17114;52.314;8.910;2022-12-18T06:16:52;29.25;;;12.45;;
30307;SDS011;17114;52.314;8.910;2022-12-18T06:19:19;24.67;;;11.63;;
30307;SDS011;17114;52.314;8.910;2022-12-18T06:21:46;24.10;;;11.07;;
30307;SDS011;17114;52.314;8.910;2022-12-18T06:24:13;29.23;;;11.90;;
30307;SDS011;17114;52.314;8.910;2022-12-18T06:26:40;25.73;;;11.90;;
30307;SDS011;17114;52.314;8.910;2022-12-18T06:29:08;25.30;;;11.50;;
30307;SDS011;17114;52.314;8.910;2022-12-18T06:31:38;30.48;;;14.98;;
30307;SDS011;17114;52.314;8.910;2022-12-18T06:34:05;23.42;;;10.77;;
30307;SDS011;17114;52.314;8.910;2022-12-18T06:36:32;29.88;;;11.38;;
30307;SDS011;17114;52.314;8.910;2022-12-18T06:38:59;25.30;;;10.70;;
30307;SDS011;17114;52.314;8.910;2022-12-18T06:41:25;29.88;;;12.13;;
30307;SDS011;17114;52.314;8.910;2022-12-18T06:43:52;27.45;;;11.43;;
30307;SDS011;17114;52.314;8.910;2022-12-18T06:46:24;26.17;;;11.20;;
30307;SDS011;17114;52.314;8.910;2022-12-18T06:48:51;27.98;;;13.05;;
30307;SDS011;17114;52.314;8.910;2022-12-18T06:51:19;28.58;;;11.30;;
30307;SDS011;17114;52.314;8.910;2022-12-18T06:53:47;26.90;;;11.18;;
30307;SDS011;17114;52.314;8.910;2022-12-18T06:56:14;27.17;;;11.77;;
30307;SDS011;17114;52.314;8.910;2022-12-18T06:58:40;37.33;;;12.60;;
30307;SDS011;17114;52.314;8.910;2022-12-18T07:01:09;25.88;;;11.50;;
30307;SDS011;17114;52.314;8.910;2022-12-18T07:03:38;30.80;;;12.80;;
30307;SDS011;17114;52.314;8.910;2022-12-18T07:06:12;28.45;;;12.52;;
30307;SDS011;17114;52.314;8.910;2022-12-18T07:08:44;28.65;;;12.70;;
30307;SDS011;17114;52.314;8.910;2022-12-18T07:11:12;26.52;;;12.57;;
30307;SDS011;17114;52.314;8.910;2022-12-18T07:13:39;27.95;;;11.43;;
30307;SDS011;17114;52.314;8.910;2022-12-18T07:16:11;26.70;;;12.32;;
30307;SDS011;17114;52.314;8.910;2022-12-18T07:18:49;26.38;;;12.43;;
30307;SDS011;17114;52.314;8.910;2022-12-18T07:21:17;27.27;;;12.57;;
30307;SDS011;17114;52.314;8.910;2022-12-18T07:23:45;28.42;;;12.48;;
30307;SDS011;17114;52.314;8.910;2022-12-18T07:26:15;27.70;;;12.00;;
30307;SDS011;17114;52.314;8.910;2022-12-18T07:28:44;34.88;;;13.35;;
30307;SDS011;17114;52.314;8.910;2022-12-18T07:31:12;27.63;;;13.40;;
30307;SDS011;17114;52.314;8.910;2022-12-18T07:33:42;30.90;;;13.98;;
30307;SDS011;17114;52.314;8.910;2022-12-18T07:36:09;28.63;;;13.57;;
30307;SDS011;17114;52.314;8.910;2022-12-18T07:38:37;32.70;;;13.15;;
30307;SDS011;17114;52.314;8.910;2022-12-18T07:41:08;26.75;;;12.48;;
30307;SDS011;17114;52.314;8.910;2022-12-18T07:43:37;30.63;;;13.98;;
30307;SDS011;17114;52.314;8.910;2022-12-18T07:46:07;31.23;;;13.95;;
30307;SDS011;17114;52.314;8.910;2022-12-18T07:48:35;31.08;;;14.40;;
30307;SDS011;17114;52.314;8.910;2022-12-18T07:51:03;34.58;;;14.25;;
30307;SDS011;17114;52.314;8.910;2022-12-18T07:53:32;42.88;;;15.55;;
30307;SDS011;17114;52.314;8.910;2022-12-18T07:56:01;40.22;;;15.82;;
30307;SDS011;17114;52.314;8.910;2022-12-18T07:58:53;30.25;;;14.40;;
30307;SDS011;17114;52.314;8.910;2022-12-18T08:01:20;33.10;;;13.93;;
30307;SDS011;17114;52.314;8.910;2022-12-18T08:03:47;31.02;;;13.15;;
30307;SDS011;17114;52.314;8.910;2022-12-18T08:06:17;31.30;;;13.00;;
30307;SDS011;17114;52.314;8.910;2022-12-18T08:08:50;26.90;;;12.55;;
30307;SDS011;17114;52.314;8.910;2022-12-18T08:11:20;24.52;;;11.52;;
30307;SDS011;17114;52.314;8.910;2022-12-18T08:13:48;26.63;;;11.70;;
30307;SDS011;17114;52.314;8.910;2022-12-18T08:16:16;29.58;;;12.13;;
30307;SDS011;17114;52.314;8.910;2022-12-18T08:18:43;23.48;;;10.77;;
30307;SDS011;17114;52.314;8.910;2022-12-18T08:21:11;26.05;;;11.65;;
30307;SDS011;17114;52.314;8.910;2022-12-18T08:23:42;24.77;;;10.88;;
30307;SDS011;17114;52.314;8.910;2022-12-18T08:26:10;20.42;;;10.50;;
30307;SDS011;17114;52.314;8.910;2022-12-18T08:28:37;20.73;;;9.60;;
30307;SDS011;17114;52.314;8.910;2022-12-18T08:31:05;23.45;;;9.80;;
30307;SDS011;17114;52.314;8.910;2022-12-18T08:33:33;20.27;;;9.57;;
30307;SDS011;17114;52.314;8.910;2022-12-18T08:36:01;23.30;;;11.15;;
30307;SDS011;17114;52.314;8.910;2022-12-18T08:38:28;20.45;;;10.18;;
30307;SDS011;17114;52.314;8.910;2022-12-18T08:41:02;27.60;;;9.63;;
30307;SDS011;17114;52.314;8.910;2022-12-18T08:43:30;20.70;;;10.70;;
30307;SDS011;17114;52.314;8.910;2022-12-18T08:46:16;22.15;;;10.25;;
30307;SDS011;17114;52.314;8.910;2022-12-18T08:48:44;25.23;;;10.40;;
30307;SDS011;17114;52.314;8.910;2022-12-18T08:51:11;26.88;;;11.88;;
30307;SDS011;17114;52.314;8.910;2022-12-18T08:53:39;23.85;;;11.68;;
30307;SDS011;17114;52.314;8.910;2022-12-18T08:56:07;28.90;;;11.85;;
30307;SDS011;17114;52.314;8.910;2022-12-18T08:58:34;23.45;;;11.95;;
30307;SDS011;17114;52.314;8.910;2022-12-18T09:01:02;23.65;;;11.57;;
30307;SDS011;17114;52.314;8.910;2022-12-18T09:03:30;24.73;;;11.75;;
30307;SDS011;17114;52.314;8.910;2022-12-18T09:05:57;27.15;;;11.90;;
30307;SDS011;17114;52.314;8.910;2022-12-18T09:08:25;23.20;;;10.45;;
30307;SDS011;17114;52.314;8.910;2022-12-18T09:10:52;23.23;;;10.70;;
30307;SDS011;17114;52.314;8.910;2022-12-18T09:13:19;21.25;;;9.13;;
30307;SDS011;17114;52.314;8.910;2022-12-18T09:15:47;17.17;;;9.43;;
30307;SDS011;17114;52.314;8.910;2022-12-18T09:18:16;37.05;;;16.33;;
30307;SDS011;17114;52.314;8.910;2022-12-18T09:20:45;36.90;;;15.48;;
30307;SDS011;17114;52.314;8.910;2022-12-18T09:23:12;24.77;;;10.68;;
30307;SDS011;17114;52.314;8.910;2022-12-18T09:25:39;21.17;;;11.30;;
30307;SDS011;17114;52.314;8.910;2022-12-18T09:28:10;26.05;;;13.27;;
30307;SDS011;17114;52.314;8.910;2022-12-18T09:30:46;23.35;;;13.75;;
30307;SDS011;17114;52.314;8.910;2022-12-18T09:33:15;19.20;;;9.60;;
30307;SDS011;17114;52.314;8.910;2022-12-18T09:35:43;16.50;;;8.35;;
30307;SDS011;17114;52.314;8.910;2022-12-18T09:38:12;11.30;;;7.28;;
30307;SDS011;17114;52.314;8.910;2022-12-18T09:40:43;14.27;;;6.78;;
30307;SDS011;17114;52.314;8.910;2022-12-18T09:43:16;19.02;;;6.82;;
30307;SDS011;17114;52.314;8.910;2022-12-18T09:45:50;16.67;;;8.68;;
30307;SDS011;17114;52.314;8.910;2022-12-18T09:48:28;19.35;;;15.52;;
30307;SDS011;17114;52.314;8.910;2022-12-18T09:50:59;12.05;;;6.25;;
30307;SDS011;17114;52.314;8.910;2022-12-18T09:53:31;10.93;;;5.90;;
30307;SDS011;17114;52.314;8.910;2022-12-18T09:56:03;9.30;;;5.15;;
30307;SDS011;17114;52.314;8.910;2022-12-18T09:58:33;12.00;;;5.50;;
30307;SDS011;17114;52.314;8.910;2022-12-18T10:01:12;12.68;;;5.40;;
30307;SDS011;17114;52.314;8.910;2022-12-18T10:03:44;12.85;;;5.55;;
30307;SDS011;17114;52.314;8.910;2022-12-18T10:06:16;11.77;;;6.10;;
30307;SDS011;17114;52.314;8.910;2022-12-18T10:14:36;9.60;;;4.57;;
30307;SDS011;17114;52.314;8.910;2022-12-18T10:28:15;10.13;;;6.07;;
30307;SDS011;17114;52.314;8.910;2022-12-18T10:30:43;13.20;;;5.88;;
30307;SDS011;17114;52.314;8.910;2022-12-18T10:33:24;10.80;;;6.30;;
30307;SDS011;17114;52.314;8.910;2022-12-18T10:35:54;12.30;;;6.25;;
30307;SDS011;17114;52.314;8.910;2022-12-18T10:38:23;13.50;;;6.95;;
30307;SDS011;17114;52.314;8.910;2022-12-18T10:41:02;10.88;;;5.55;;
30307;SDS011;17114;52.314;8.910;2022-12-18T10:43:36;12.10;;;5.55;;
30307;SDS011;17114;52.314;8.910;2022-12-18T10:54:01;11.25;;;5.50;;
30307;SDS011;17114;52.314;8.910;2022-12-18T10:56:38;10.68;;;5.22;;
30307;SDS011;17114;52.314;8.910;2022-12-18T10:59:07;10.13;;;5.32;;
30307;SDS011;17114;52.314;8.910;2022-12-18T11:01:46;11.48;;;5.85;;
30307;SDS011;17114;52.314;8.910;2022-12-18T11:04:19;13.18;;;5.80;;
30307;SDS011;17114;52.314;8.910;2022-12-18T11:09:22;13.10;;;5.53;;
30307;SDS011;17114;52.314;8.910;2022-12-18T11:11:52;15.00;;;5.97;;
30307;SDS011;17114;52.314;8.910;2022-12-18T11:14:22;15.48;;;7.13;;
30307;SDS011;17114;52.314;8.910;2022-12-18T11:16:51;16.45;;;5.82;;
30307;SDS011;17114;52.314;8.910;2022-12-18T11:19:40;15.73;;;5.68;;
30307;SDS011;17114;52.314;8.910;2022-12-18T11:22:24;11.82;;;6.20;;
30307;SDS011;17114;52.314;8.910;2022-12-18T11:25:16;12.48;;;5.32;;
30307;SDS011;17114;52.314;8.910;2022-12-18T11:28:00;12.25;;;6.60;;
30307;SDS011;17114;52.314;8.910;2022-12-18T11:30:32;12.35;;;6.50;;
30307;SDS011;17114;52.314;8.910;2022-12-18T11:33:08;9.65;;;5.55;;
30307;SDS011;17114;52.314;8.910;2022-12-18T11:35:50;13.77;;;6.32;;
30307;SDS011;17114;52.314;8.910;2022-12-18T11:38:32;15.38;;;5.93;;
30307;SDS011;17114;52.314;8.910;2022-12-18T11:41:09;14.73;;;6.45;;
30307;SDS011;17114;52.314;8.910;2022-12-18T11:44:13;15.57;;;7.28;;
30307;SDS011;17114;52.314;8.910;2022-12-18T11:46:46;13.35;;;6.25;;
30307;SDS011;17114;52.314;8.910;2022-12-18T11:49:24;9.23;;;4.80;;
30307;SDS011;17114;52.314;8.910;2022-12-18T11:51:56;13.32;;;6.18;;
30307;SDS011;17114;52.314;8.910;2022-12-18T11:54:52;14.02;;;6.10;;
30307;SDS011;17114;52.314;8.910;2022-12-18T11:59:59;13.45;;;6.47;;
30307;SDS011;17114;52.314;8.910;2022-12-18T12:16:57;17.35;;;6.90;;
30307;SDS011;17114;52.314;8.910;2022-12-18T12:30:51;16.98;;;7.25;;
30307;SDS011;17114;52.314;8.910;2022-12-18T12:33:38;17.67;;;7.35;;
30307;SDS011;17114;52.314;8.910;2022-12-18T12:39:08;13.43;;;6.45;;
30307;SDS011;17114;52.314;8.910;2022-12-18T12:41:41;10.40;;;5.13;;
30307;SDS011;17114;52.314;8.910;2022-12-18T12:44:31;12.98;;;6.65;;
30307;SDS011;17114;52.314;8.910;2022-12-18T12:47:07;13.73;;;6.45;;
30307;SDS011;17114;52.314;8.910;2022-12-18T12:49:45;13.65;;;6.30;;
30307;SDS011;17114;52.314;8.910;2022-12-18T12:54:55;17.65;;;7.22;;
30307;SDS011;17114;52.314;8.910;2022-12-18T13:00:19;14.85;;;7.18;;
30307;SDS011;17114;52.314;8.910;2022-12-18T13:03:01;17.73;;;8.40;;
30307;SDS011;17114;52.314;8.910;2022-12-18T13:05:49;13.38;;;7.35;;
30307;SDS011;17114;52.314;8.910;2022-12-18T13:08:28;17.77;;;7.75;;
30307;SDS011;17114;52.314;8.910;2022-12-18T13:11:02;14.65;;;6.65;;
30307;SDS011;17114;52.314;8.910;2022-12-18T13:13:52;17.05;;;7.45;;
30307;SDS011;17114;52.314;8.910;2022-12-18T13:16:24;16.13;;;7.57;;
30307;SDS011;17114;52.314;8.910;2022-12-18T13:18:54;17.23;;;8.18;;
30307;SDS011;17114;52.314;8.910;2022-12-18T13:21:28;20.70;;;8.75;;
30307;SDS011;17114;52.314;8.910;2022-12-18T13:23:57;19.08;;;9.10;;
30307;SDS011;17114;52.314;8.910;2022-12-18T13:38:23;12.93;;;6.40;;
30307;SDS011;17114;52.314;8.910;2022-12-18T13:43:54;11.20;;;6.43;;
30307;SDS011;17114;52.314;8.910;2022-12-18T13:46:30;15.38;;;6.00;;
30307;SDS011;17114;52.314;8.910;2022-12-18T13:51:42;14.95;;;6.57;;
30307;SDS011;17114;52.314;8.910;2022-12-18T13:54:24;12.50;;;6.45;;
30307;SDS011;17114;52.314;8.910;2022-12-18T13:56:51;14.70;;;6.60;;
30307;SDS011;17114;52.314;8.910;2022-12-18T13:59:25;10.65;;;6.10;;
30307;SDS011;17114;52.314;8.910;2022-12-18T14:02:16;13.05;;;7.10;;
30307;SDS011;17114;52.314;8.910;2022-12-18T14:04:48;13.00;;;6.00;;
30307;SDS011;17114;52.314;8.910;2022-12-18T14:09:47;11.43;;;6.88;;
30307;SDS011;17114;52.314;8.910;2022-12-18T14:12:22;12.35;;;6.72;;
30307;SDS011;17114;52.314;8.910;2022-12-18T14:20:36;13.95;;;6.35;;
30307;SDS011;17114;52.314;8.910;2022-12-18T14:23:09;16.40;;;6.60;;
30307;SDS011;17114;52.314;8.910;2022-12-18T14:25:55;13.63;;;7.05;;
30307;SDS011;17114;52.314;8.910;2022-12-18T14:28:30;13.77;;;6.57;;
30307;SDS011;17114;52.314;8.910;2022-12-18T14:30:57;17.40;;;7.55;;
30307;SDS011;17114;52.314;8.910;2022-12-18T14:33:26;14.52;;;6.70;;
30307;SDS011;17114;52.314;8.910;2022-12-18T14:38:32;14.50;;;6.93;;
30307;SDS011;17114;52.314;8.910;2022-12-18T14:41:06;14.43;;;7.20;;
30307;SDS011;17114;52.314;8.910;2022-12-18T14:43:38;13.60;;;6.68;;
30307;SDS011;17114;52.314;8.910;2022-12-18T14:46:28;14.13;;;6.63;;
30307;SDS011;17114;52.314;8.910;2022-12-18T14:48:55;11.50;;;6.30;;
30307;SDS011;17114;52.314;8.910;2022-12-18T14:51:24;13.45;;;6.50;;
30307;SDS011;17114;52.314;8.910;2022-12-18T15:04:47;13.68;;;6.90;;
30307;SDS011;17114;52.314;8.910;2022-12-18T15:07:17;15.23;;;7.15;;
30307;SDS011;17114;52.314;8.910;2022-12-18T15:10:03;13.82;;;7.13;;
30307;SDS011;17114;52.314;8.910;2022-12-18T15:13:05;14.60;;;7.60;;
30307;SDS011;17114;52.314;8.910;2022-12-18T15:25:47;16.20;;;7.15;;
30307;SDS011;17114;52.314;8.910;2022-12-18T15:28:16;14.43;;;7.68;;
30307;SDS011;17114;52.314;8.910;2022-12-18T15:31:04;14.55;;;6.93;;
30307;SDS011;17114;52.314;8.910;2022-12-18T15:33:34;14.68;;;7.30;;
30307;SDS011;17114;52.314;8.910;2022-12-18T15:36:13;14.27;;;7.30;;
30307;SDS011;17114;52.314;8.910;2022-12-18T15:38:47;16.70;;;6.75;;
30307;SDS011;17114;52.314;8.910;2022-12-18T15:41:19;13.32;;;7.32;;
30307;SDS011;17114;52.314;8.910;2022-12-18T15:43:51;12.25;;;7.30;;
30307;SDS011;17114;52.314;8.910;2022-12-18T15:46:19;12.43;;;6.55;;
30307;SDS011;17114;52.314;8.910;2022-12-18T15:48:51;16.40;;;7.32;;
30307;SDS011;17114;52.314;8.910;2022-12-18T15:51:33;15.07;;;7.88;;
30307;SDS011;17114;52.314;8.910;2022-12-18T15:54:03;16.50;;;7.60;;
30307;SDS011;17114;52.314;8.910;2022-12-18T15:56:32;15.32;;;7.03;;
30307;SDS011;17114;52.314;8.910;2022-12-18T15:59:19;16.08;;;7.28;;
30307;SDS011;17114;52.314;8.910;2022-12-18T16:01:47;12.25;;;6.00;;
30307;SDS011;17114;52.314;8.910;2022-12-18T16:04:16;14.07;;;7.53;;
30307;SDS011;17114;52.314;8.910;2022-12-18T16:06:47;15.23;;;7.22;;
30307;SDS011;17114;52.314;8.910;2022-12-18T16:09:35;15.10;;;7.45;;
30307;SDS011;17114;52.314;8.910;2022-12-18T16:12:03;20.45;;;8.73;;
30307;SDS011;17114;52.314;8.910;2022-12-18T16:14:30;11.77;;;7.03;;
30307;SDS011;17114;52.314;8.910;2022-12-18T16:19:26;14.80;;;7.80;;
30307;SDS011;17114;52.314;8.910;2022-12-18T16:21:55;18.40;;;7.70;;
30307;SDS011;17114;52.314;8.910;2022-12-18T16:24:27;13.57;;;7.57;;
30307;SDS011;17114;52.314;8.910;2022-12-18T16:26:56;16.08;;;7.97;;
30307;SDS011;17114;52.314;8.910;2022-12-18T16:29:26;17.92;;;8.43;;
30307;SDS011;17114;52.314;8.910;2022-12-18T16:31:57;16.27;;;7.55;;
30307;SDS011;17114;52.314;8.910;2022-12-18T16:34:27;16.27;;;8.05;;
30307;SDS011;17114;52.314;8.910;2022-12-18T16:37:06;14.88;;;7.78;;
30307;SDS011;17114;52.314;8.910;2022-12-18T16:39:34;19.13;;;8.40;;
30307;SDS011;17114;52.314;8.910;2022-12-18T16:42:03;14.18;;;7.63;;
30307;SDS011;17114;52.314;8.910;2022-12-18T16:44:35;17.52;;;8.27;;
30307;SDS011;17114;52.314;8.910;2022-12-18T16:47:02;14.45;;;8.07;;
30307;SDS011;17114;52.314;8.910;2022-12-18T16:49:30;16.20;;;7.38;;
30307;SDS011;17114;52.314;8.910;2022-12-18T16:51:57;16.67;;;8.60;;
30307;SDS011;17114;52.314;8.910;2022-12-18T16:54:28;15.57;;;8.32;;
30307;SDS011;17114;52.314;8.910;2022-12-18T16:56:55;16.95;;;8.30;;
30307;SDS011;17114;52.314;8.910;2022-12-18T16:59:22;26.50;;;7.82;;
30307;SDS011;17114;52.314;8.910;2022-12-18T17:01:51;16.95;;;8.07;;
30307;SDS011;17114;52.314;8.910;2022-12-18T17:04:19;12.40;;;6.05;;
30307;SDS011;17114;52.314;8.910;2022-12-18T17:06:45;12.13;;;7.03;;
30307;SDS011;17114;52.314;8.910;2022-12-18T17:09:17;13.15;;;6.50;;
30307;SDS011;17114;52.314;8.910;2022-12-18T17:11:54;16.10;;;7.40;;
30307;SDS011;17114;52.314;8.910;2022-12-18T17:14:22;14.30;;;6.55;;
30307;SDS011;17114;52.314;8.910;2022-12-18T17:16:50;16.55;;;7.75;;